Time,TemperatureF,DewpointF,PressureIn,WindDirection,WindDirectionDegrees,WindSpeedMPH,WindSpeedGustMPH,Humidity,HourlyPrecipIn,Conditions,Clouds,dailyrainin,SoftwareType,DateUTC
2013-11-23 00:21:00,50.0,38.0,29.94,SE,132,1.0,3.0,64,0.00,,,0.00,,2013-11-23 08:21:00,
2013-11-23 00:42:00,50.0,39.0,29.94,SE,132,0.0,2.0,67,0.00,,,0.00,,2013-11-23 08:42:00,
2013-11-23 00:52:00,50.0,39.0,29.95,SE,133,0.0,3.0,66,0.00,,,0.00,,2013-11-23 08:52:00,
2013-11-23 01:21:00,50.0,39.0,29.94,SE,133,0.0,0.0,66,0.00,,,0.00,,2013-11-23 09:21:00,
2013-11-23 01:43:00,49.0,39.0,29.94,SE,133,0.0,0.0,67,0.00,,,0.00,,2013-11-23 09:43:00,
2013-11-23 01:54:00,49.0,38.0,29.95,SE,133,0.0,0.0,66,0.00,,,0.00,,2013-11-23 09:54:00,
2013-11-23 02:22:00,49.0,39.0,29.95,East,81,0.0,3.0,68,0.00,,,0.00,,2013-11-23 10:22:00,
2013-11-23 02:42:00,48.0,39.0,29.95,East,80,0.0,0.0,70,0.00,,,0.00,,2013-11-23 10:42:00,
2013-11-23 02:52:00,47.0,38.0,29.95,East,81,0.0,0.0,71,0.00,,,0.00,,2013-11-23 10:52:00,
2013-11-23 03:22:00,47.0,37.0,29.95,East,81,0.0,0.0,68,0.00,,,0.00,,2013-11-23 11:22:00,
2013-11-23 03:42:00,48.0,38.0,29.96,East,81,0.0,4.0,68,0.00,,,0.00,,2013-11-23 11:42:00,
2013-11-23 03:52:00,47.0,37.0,29.96,ENE,76,2.0,3.0,69,0.00,,,0.00,,2013-11-23 11:52:00,
2013-11-23 04:22:00,47.0,37.0,29.96,East,79,0.0,0.0,68,0.00,,,0.00,,2013-11-23 12:22:00,
2013-11-23 04:42:00,48.0,38.0,29.96,East,79,1.0,3.0,67,0.00,,,0.00,,2013-11-23 12:42:00,
2013-11-23 04:52:00,48.0,38.0,29.96,East,79,0.0,0.0,67,0.00,,,0.00,,2013-11-23 12:52:00,
2013-11-23 05:11:00,48.0,37.0,29.97,East,79,0.0,0.0,66,0.00,,,0.00,,2013-11-23 13:11:00,
2013-11-23 10:42:00,60.0,42.0,30.01,NE,46,0.0,0.0,52,0.00,,,0.00,,2013-11-23 18:42:00,
2013-11-23 10:52:00,62.0,42.0,30.01,NW,321,0.0,4.0,47,0.00,,,0.00,,2013-11-23 18:52:00,
2013-11-23 11:21:00,64.0,42.0,30.00,WSW,242,0.0,3.0,44,0.00,,,0.00,,2013-11-23 19:21:00,
2013-11-23 11:42:00,64.0,41.0,30.00,WSW,242,0.0,1.0,43,0.00,,,0.00,,2013-11-23 19:42:00,
2013-11-23 11:52:00,63.0,41.0,30.00,WSW,242,0.0,1.0,44,0.00,,,0.00,,2013-11-23 19:52:00,
2013-11-23 12:11:00,63.0,42.0,29.99,WSW,243,0.0,1.0,46,0.00,,,0.00,,2013-11-23 20:11:00,
2013-11-23 12:21:00,63.0,42.0,29.99,WSW,244,0.0,3.0,46,0.00,,,0.00,,2013-11-23 20:21:00,
2013-11-23 12:42:00,62.0,41.0,29.99,SSE,164,0.0,1.0,46,0.00,,,0.00,,2013-11-23 20:42:00,
2013-11-23 12:52:00,62.0,41.0,29.98,NE,44,0.0,1.0,46,0.00,,,0.00,,2013-11-23 20:52:00,
2013-11-23 13:21:00,63.0,41.0,29.98,South,176,0.0,4.0,44,0.00,,,0.00,,2013-11-23 21:21:00,
2013-11-23 13:42:00,63.0,40.0,29.98,ENE,68,0.0,8.0,43,0.00,,,0.00,,2013-11-23 21:42:00,
2013-11-23 13:53:00,63.0,40.0,29.98,ESE,121,2.0,6.0,42,0.00,,,0.00,,2013-11-23 21:53:00,
2013-11-23 14:13:00,65.0,40.0,29.97,ENE,76,0.0,10.0,40,0.00,,,0.00,,2013-11-23 22:13:00,
2013-11-23 14:23:00,66.0,40.0,29.97,ESE,105,2.0,9.0,39,0.00,,,0.00,,2013-11-23 22:23:00,
2013-11-23 14:43:00,66.0,40.0,29.96,ENE,67,3.0,10.0,38,0.00,,,0.00,,2013-11-23 22:43:00,
2013-11-23 14:52:00,66.0,40.0,29.97,SE,128,5.0,11.0,38,0.00,,,0.00,,2013-11-23 22:52:00,
2013-11-23 15:21:00,65.0,39.0,29.97,ESE,113,0.0,7.0,39,0.00,,,0.00,,2013-11-23 23:21:00,
2013-11-23 15:42:00,64.0,38.0,29.98,East,79,3.0,10.0,38,0.00,,,0.00,,2013-11-23 23:42:00,
2013-11-23 15:53:00,63.0,38.0,29.98,NNW,332,0.0,4.0,40,0.00,,,0.00,,2013-11-23 23:53:00,
2013-11-23 16:11:00,63.0,40.0,29.99,West,261,1.0,6.0,42,0.00,,,0.00,,2013-11-24 00:11:00,
2013-11-23 16:21:00,62.0,42.0,30.00,SSW,213,4.0,7.0,48,0.00,,,0.00,,2013-11-24 00:21:00,
2013-11-23 16:42:00,61.0,42.0,30.00,WSW,258,4.0,9.0,50,0.00,,,0.00,,2013-11-24 00:42:00,
2013-11-23 16:52:00,59.0,42.0,30.01,West,262,1.0,6.0,54,0.00,,,0.00,,2013-11-24 00:52:00,
2013-11-23 17:11:00,58.0,42.0,30.01,SW,234,1.0,9.0,55,0.00,,,0.00,,2013-11-24 01:11:00,
2013-11-23 17:22:00,57.0,41.0,30.01,SSW,206,3.0,6.0,56,0.00,,,0.00,,2013-11-24 01:22:00,
2013-11-23 17:42:00,56.0,41.0,30.02,SSW,209,0.0,0.0,58,0.00,,,0.00,,2013-11-24 01:42:00,
2013-11-23 17:52:00,56.0,41.0,30.02,SSW,210,1.0,4.0,57,0.00,,,0.00,,2013-11-24 01:52:00,
2013-11-23 18:11:00,56.0,43.0,30.03,SSW,211,0.0,5.0,61,0.00,,,0.00,,2013-11-24 02:11:00,
2013-11-23 18:22:00,55.0,42.0,30.04,SSW,210,0.0,0.0,62,0.00,,,0.00,,2013-11-24 02:22:00,
2013-11-23 18:42:00,55.0,41.0,30.04,SSW,204,0.0,3.0,60,0.00,,,0.00,,2013-11-24 02:42:00,
2013-11-23 18:52:00,54.0,42.0,30.04,SSW,204,0.0,0.0,64,0.00,,,0.00,,2013-11-24 02:52:00,
2013-11-23 19:11:00,54.0,41.0,30.05,SSW,194,2.0,3.0,62,0.00,,,0.00,,2013-11-24 03:11:00,
2013-11-23 19:22:00,54.0,41.0,30.05,SE,132,3.0,4.0,62,0.00,,,0.00,,2013-11-24 03:22:00,
2013-11-23 19:43:00,53.0,40.0,30.05,East,101,0.0,3.0,62,0.00,,,0.00,,2013-11-24 03:43:00,
2013-11-23 19:53:00,53.0,41.0,30.05,East,101,0.0,2.0,63,0.00,,,0.00,,2013-11-24 03:53:00,
2013-11-23 20:02:00,-999.0,-99.9,30.05,NE,52,3.0,5.0,64,0.00,,,0.00,,2013-11-24 04:02:00,
2013-11-23 20:23:00,53.0,42.0,30.06,NE,51,0.0,4.0,65,0.00,,,0.00,,2013-11-24 04:23:00,
2013-11-23 20:42:00,52.0,41.0,30.06,NE,51,0.0,0.0,67,0.00,,,0.00,,2013-11-24 04:42:00,
2013-11-23 20:53:00,51.0,41.0,30.06,NE,51,0.0,0.0,68,0.00,,,0.00,,2013-11-24 04:53:00,
2013-11-23 21:22:00,52.0,41.0,30.07,NE,46,3.0,5.0,66,0.00,,,0.00,,2013-11-24 05:22:00,
2013-11-23 21:43:00,52.0,40.0,30.07,NE,53,2.0,5.0,64,0.00,,,0.00,,2013-11-24 05:43:00,
2013-11-23 21:53:00,52.0,38.0,30.07,NE,47,3.0,5.0,59,0.00,,,0.00,,2013-11-24 05:53:00,
2013-11-23 22:21:00,53.0,39.0,30.07,NE,40,0.0,0.0,59,0.00,,,0.00,,2013-11-24 06:21:00,
2013-11-23 22:42:00,52.0,39.0,30.07,NE,40,0.0,0.0,62,0.00,,,0.00,,2013-11-24 06:42:00,
2013-11-23 22:52:00,51.0,39.0,30.08,NE,40,0.0,0.0,63,0.00,,,0.00,,2013-11-24 06:52:00,
2013-11-23 23:11:00,51.0,39.0,30.08,NE,40,2.0,4.0,63,0.00,,,0.00,,2013-11-24 07:11:00,
2013-11-23 23:21:00,52.0,38.0,30.08,NE,35,3.0,5.0,59,0.00,,,0.00,,2013-11-24 07:21:00,
2013-11-23 23:42:00,53.0,39.0,30.08,NE,36,1.0,4.0,58,0.00,,,0.00,,2013-11-24 07:42:00,
2013-11-23 23:52:00,53.0,39.0,30.08,NE,39,3.0,6.0,58,0.00,,,0.00,,2013-11-24 07:52:00,